»·PEaware :: SKW800 CYYJ-KPDX

SKW800 :: CYYJ-KPDX

FLIGHT INFORMATION

Flight Status: Arrived
Operator:
SkyWest Airlines
More flights by this operator :: More flights under this callsign
Pilot: Scott L. (17677)
Aircraft: SAAB 340
(SF34)
More flights by this aircraft type
Origin: CYYJ Victoria Intl
Canada
Destination: KPDX Portland Intl
United States
More flights between these airports :: More routes between these airports
Route: CYYJ5 BUWZO HELENS6
File this flight plan on PilotEdge
Remarks:
Altitude:
(Current/Filed)
23,000ft
Speed:
(Current/Filed)
220kts
Departed: 14-May-20 06:14 PM
Arrived: 14-May-20 07:09 PM
Distance/Time
Traveled:
186nm/0:55
Distance/Time
To Go:
Arrived

Flight Plot

Page will automatically refresh every two minutes.


Map Options




Map Legend


Flown Route
Filed Route
Departure Airport
Arrival Airport
Navaid (VOR, NDB)
Fix

Horizontal Profiles

Position Reports

Time Latitude Longitude Heading Altitude Ground
Speed
14-May-20 18:12 48.643762 -123.196861 164 15946ft 192kts
14-May-20 18:13 48.582506 -123.167800 160 16034ft 252kts
14-May-20 18:14 48.523557 -123.136377 157 18823ft 166kts
14-May-20 18:15 48.478374 -123.111792 157 20496ft 174kts
14-May-20 18:16 48.431383 -123.086321 157 22003ft 179kts
14-May-20 18:17 48.382168 -123.059684 157 23032ft 201kts
14-May-20 18:18 48.322674 -123.027599 158 23033ft 241kts
14-May-20 18:19 48.256556 -122.992048 158 23028ft 255kts
14-May-20 18:20 48.187721 -122.955106 158 23009ft 262kts
14-May-20 18:21 48.117822 -122.917729 159 23011ft 264kts
14-May-20 18:22 48.047333 -122.880108 159 23058ft 263kts
14-May-20 18:23 47.977184 -122.842781 159 23063ft 264kts
14-May-20 18:24 47.907014 -122.805572 159 23063ft 265kts
14-May-20 18:25 47.837616 -122.768873 159 23064ft 265kts
14-May-20 18:26 47.767850 -122.732108 158 23063ft 265kts
14-May-20 18:27 47.698221 -122.695435 159 23062ft 265kts
14-May-20 18:28 47.628196 -122.658725 160 23055ft 265kts
14-May-20 18:29 47.558312 -122.622187 161 23057ft 265kts
14-May-20 18:30 47.488391 -122.585725 161 23051ft 266kts
14-May-20 18:31 47.418256 -122.549291 161 23054ft 266kts
14-May-20 18:32 47.347662 -122.512703 160 23056ft 266kts
14-May-20 18:33 47.277709 -122.476518 160 23062ft 266kts
14-May-20 18:34 47.206948 -122.440008 161 23069ft 266kts
14-May-20 18:35 47.135817 -122.403454 161 23066ft 267kts
14-May-20 18:36 47.064666 -122.367013 161 23071ft 268kts
14-May-20 18:37 46.993505 -122.330632 162 22980ft 272kts
14-May-20 18:38 46.919896 -122.309828 181 22972ft 267kts
14-May-20 18:39 46.845731 -122.309598 181 22979ft 267kts
14-May-20 18:40 46.770227 -122.309612 181 22616ft 280kts
14-May-20 18:41 46.687486 -122.309617 180 21122ft 303kts
14-May-20 18:42 46.602624 -122.309619 180 19609ft 300kts
14-May-20 18:43 46.518459 -122.309624 180 18085ft 297kts
14-May-20 18:44 46.436517 -122.309622 180 16591ft 295kts
14-May-20 18:45 46.354236 -122.309621 180 15256ft 290kts
14-May-20 18:46 46.273938 -122.309625 179 14137ft 281kts
14-May-20 18:47 46.201114 -122.340898 200 12489ft 270kts
14-May-20 18:48 46.131576 -122.379536 201 10447ft 257kts
14-May-20 18:49 46.068133 -122.414789 202 9993ft 225kts
14-May-20 18:50 46.009798 -122.447172 202 9433ft 234kts
14-May-20 18:51 45.946261 -122.482327 202 8031ft 249kts
14-May-20 18:52 45.881414 -122.518096 202 6993ft 238kts
14-May-20 18:53 45.822376 -122.550592 202 6997ft 218kts
14-May-20 18:54 45.769260 -122.590765 234 6998ft 213kts
14-May-20 18:55 45.771842 -122.674093 292 6595ft 237kts
14-May-20 18:56 45.801482 -122.765183 292 5259ft 253kts
14-May-20 18:57 45.831277 -122.856605 293 4031ft 232kts
14-May-20 18:58 45.856448 -122.931345 304 3821ft 191kts
14-May-20 18:59 45.851853 -123.004626 221 3149ft 213kts
14-May-20 19:00 45.795563 -123.008424 143 2990ft 221kts
14-May-20 19:01 45.756037 -122.937749 144 2995ft 232kts
14-May-20 19:02 45.702766 -122.881194 135 2984ft 237kts
14-May-20 19:04 45.667497 -122.809546 119 2791ft 192kts
14-May-20 19:05 45.644450 -122.748491 118 2005ft 141kts
14-May-20 19:06 45.624323 -122.698127 114 1529ft 163kts
14-May-20 19:07 45.605878 -122.648065 122 608ft 129kts
14-May-20 19:08 45.590046 -122.608342 119 34ft 64kts
14-May-20 19:09 45.589404 -122.603484 116 34ft 8kts
14-May-20 19:10 45.590189 -122.600045 121 34ft 0kts

Navigation Log

Ident Type
Flight plan parsing failed, navigation log unavailable